Airfield :
LOGIN :

Register | Disclaimer

   EN    FR    IT 

 










Legend :    VFR   Marginal VFR   IFR   Intensive IFR   Very Intensive IFR
Visi :
Ceiling :
>= 8 km
>= 3000ft
5 to 8 km
1000 to 3000 ft
1500m to 5 km
500 to 1000 ft
800 to 1500m
200 to 500 ft
< 800m
< 200 ft
Symbols :   Thunderstorms  Fog  Heavy snow  Heavy precipitations  Wind > 20 kt
SIGMETs :     Misc.  Thunderstorms  Icing  Turbulence  Mountain Waves  Volcanic Ashes






- Airport Elevation : 26 ft
- IATA code : GLA


EGPF - Glasgow

CURRENT METAR :
  • 250020Z AUTO VRB01KT 9999 OVC009 16/14 Q1008

EXPIRED METARs :
  • 242350Z AUTO VRB02KT 9999 BKN010 OVC022 16/14 Q1008
  • 242320Z AUTO 18004KT 140V200 9999 -RA BKN010 OVC023 16/14 Q1008
  • 242250Z AUTO 13003KT 030V210 9999 -RA BKN012 OVC016 16/14 Q1008
  • 242220Z AUTO 10003KT 020V170 9999 BKN014 OVC020 16/14 Q1009
  • 242150Z AUTO 12003KT 080V160 9999 -RA BKN011 OVC017 15/14 Q1009
  • 242120Z AUTO 16003KT 110V190 9999 -RA BKN011 OVC015 16/14 Q1009
  • 242050Z AUTO 12004KT 100V170 9999 -RA BKN010 OVC016 15/14 Q1010
  • 242020Z AUTO 12004KT 090V160 9999 BKN011 OVC020 16/14 Q1010
  • 241950Z AUTO 15005KT 120V190 9999 SCT011 SCT016 BKN024 16/14 Q1010

TAF TAF EGPF
Valid from the 25 at 00:00 until the 26 at 00:00 UTC


242254Z 2500/2524 22008KT 9999 SCT012
TEMPO 2500/2508 6000 -DZRA BKN012
PROB30
TEMPO 2500/2504 3000 DZRA BKN004
TEMPO 2512/2522 6000 SHRA
PROB30
TEMPO 2516/2521 3000 +SHRA BKN010 BKN020CB
ATIS : +44 141 887 7449



MET'MAP, your aeronautical weather chart ! - Copyright ORBIFLY December 2007 - Disclaimer

ORBIFLY MET'MAP TEAM :

Programming & Development : Alexandra Zaïnal
Original concept : Baudouin d'Aumeries
Technical & hardware support : Manuel Goepfert
Assistance : Marc-Olivier Méhu




SOURCES & CREDITS :

   NOAA